FDB1334 VTBD-OMDB
Flight info
| Callsign | FDB1334 |
|---|---|
| Flight time | N/A |
| Altitude | 32000 |
| Route | PASTO3A PASTO L301 GUSTU/N0458F340 L301 AKTIV/N0455F360 L301 RAGMA N571 VUSET A454 PASOV B540 KUPMA/N0373F240 B540 MIVEK P574 IMPED |
| Aircraft | B738/M-SDE2E3FGHIRWXY/LB1 |
Departure
| Time | N/A |
|---|---|
| Airport | Don Mueang International Airport (VTBD) |
Arrival
| Time | 2026-04-26 15:25 |
|---|---|
| Airport | Dubai International Airport (OMDB) |
| Time | Latitude | Longitude | Altitude | Speed | Heading |
|---|---|---|---|---|---|
| 2026-04-26 12:11 | 19.19743 | 78.30542 | 36002 ft | 426 kts | 282° |
| 2026-04-26 12:11 | 19.20601 | 78.27549 | 36257 ft | 424 kts | 282° |
| 2026-04-26 12:12 | 19.21453 | 78.24573 | 36507 ft | 421 kts | 282° |
| 2026-04-26 12:12 | 19.22301 | 78.21610 | 36708 ft | 420 kts | 282° |
| 2026-04-26 12:12 | 19.23146 | 78.18651 | 36863 ft | 420 kts | 282° |
| 2026-04-26 12:13 | 19.24831 | 78.12742 | 37200 ft | 418 kts | 282° |
| 2026-04-26 12:13 | 19.25582 | 78.09783 | 37422 ft | 415 kts | 279° |
| 2026-04-26 12:13 | 19.26251 | 78.06830 | 37688 ft | 410 kts | 279° |
| 2026-04-26 12:14 | 19.27544 | 78.00946 | 37769 ft | 410 kts | 279° |
| 2026-04-26 12:14 | 19.28866 | 77.95087 | 37768 ft | 408 kts | 279° |
| 2026-04-26 12:15 | 19.30188 | 77.89301 | 37753 ft | 406 kts | 279° |
| 2026-04-26 12:15 | 19.31525 | 77.83514 | 37762 ft | 404 kts | 279° |
| 2026-04-26 12:16 | 19.32857 | 77.77742 | 37762 ft | 403 kts | 279° |
| 2026-04-26 12:16 | 19.34182 | 77.71979 | 37760 ft | 403 kts | 279° |
| 2026-04-26 12:17 | 19.35506 | 77.66211 | 37755 ft | 403 kts | 279° |
| 2026-04-26 12:17 | 19.36831 | 77.60427 | 37758 ft | 405 kts | 279° |
| 2026-04-26 12:18 | 19.38162 | 77.54609 | 37759 ft | 407 kts | 279° |
| 2026-04-26 12:18 | 19.39495 | 77.48774 | 37755 ft | 409 kts | 279° |
| 2026-04-26 12:19 | 19.40832 | 77.42908 | 37745 ft | 410 kts | 279° |
| 2026-04-26 12:19 | 19.42175 | 77.37014 | 37757 ft | 412 kts | 279° |
| 2026-04-26 12:20 | 19.43520 | 77.31103 | 37750 ft | 413 kts | 279° |
| 2026-04-26 12:20 | 19.44638 | 77.26176 | 37751 ft | 414 kts | 279° |
| 2026-04-26 12:21 | 19.45981 | 77.20242 | 37754 ft | 414 kts | 279° |
| 2026-04-26 12:21 | 19.47321 | 77.14300 | 37753 ft | 414 kts | 279° |
| 2026-04-26 12:22 | 19.48655 | 77.08378 | 37760 ft | 413 kts | 279° |
| 2026-04-26 12:22 | 19.49985 | 77.02462 | 37764 ft | 412 kts | 279° |
| 2026-04-26 12:23 | 19.51311 | 76.96554 | 37761 ft | 411 kts | 279° |
| 2026-04-26 12:23 | 19.52630 | 76.90670 | 37764 ft | 410 kts | 279° |
| 2026-04-26 12:24 | 19.53943 | 76.84802 | 37766 ft | 409 kts | 278° |
| 2026-04-26 12:24 | 19.55253 | 76.78987 | 37776 ft | 408 kts | 279° |
| 2026-04-26 12:25 | 19.57244 | 76.70227 | 37779 ft | 407 kts | 279° |
| 2026-04-26 12:25 | 19.58568 | 76.64390 | 37780 ft | 407 kts | 279° |
| 2026-04-26 12:26 | 19.59889 | 76.58546 | 37787 ft | 408 kts | 278° |
| 2026-04-26 12:26 | 19.61210 | 76.52692 | 37787 ft | 408 kts | 278° |
| 2026-04-26 12:27 | 19.62532 | 76.46824 | 37798 ft | 410 kts | 279° |
| 2026-04-26 12:27 | 19.63858 | 76.40930 | 37785 ft | 411 kts | 278° |
| 2026-04-26 12:28 | 19.65184 | 76.35027 | 37792 ft | 412 kts | 278° |
| 2026-04-26 12:28 | 19.66511 | 76.29109 | 37787 ft | 413 kts | 278° |
| 2026-04-26 12:29 | 19.67838 | 76.23182 | 37791 ft | 413 kts | 278° |
| 2026-04-26 12:30 | 19.69818 | 76.14320 | 37792 ft | 413 kts | 278° |
| 2026-04-26 12:30 | 19.71143 | 76.08379 | 37796 ft | 414 kts | 278° |
| 2026-04-26 12:31 | 19.73127 | 75.99461 | 37792 ft | 414 kts | 278° |
| 2026-04-26 12:31 | 19.74449 | 75.93511 | 37799 ft | 414 kts | 278° |
| 2026-04-26 12:32 | 19.75769 | 75.87555 | 37797 ft | 415 kts | 278° |
| 2026-04-26 12:33 | 19.77747 | 75.78612 | 37809 ft | 415 kts | 278° |
| 2026-04-26 12:33 | 19.79067 | 75.72632 | 37807 ft | 415 kts | 278° |
| 2026-04-26 12:34 | 19.80375 | 75.66702 | 37803 ft | 415 kts | 278° |
| 2026-04-26 12:34 | 19.81687 | 75.60737 | 37807 ft | 415 kts | 278° |
| 2026-04-26 12:35 | 19.83000 | 75.54759 | 37808 ft | 415 kts | 278° |
| 2026-04-26 12:35 | 19.84311 | 75.48780 | 37803 ft | 416 kts | 278° |
| 2026-04-26 12:36 | 19.85623 | 75.42787 | 37813 ft | 417 kts | 278° |
| 2026-04-26 12:36 | 19.86870 | 75.36775 | 37811 ft | 416 kts | 277° |
| 2026-04-26 12:37 | 19.87977 | 75.30749 | 37805 ft | 415 kts | 277° |
| 2026-04-26 12:37 | 19.89072 | 75.24721 | 37802 ft | 415 kts | 277° |
| 2026-04-26 12:38 | 19.90177 | 75.18699 | 37809 ft | 415 kts | 277° |
| 2026-04-26 12:38 | 19.91288 | 75.12686 | 37809 ft | 414 kts | 277° |
| 2026-04-26 12:39 | 19.92398 | 75.06681 | 37815 ft | 414 kts | 277° |
| 2026-04-26 12:39 | 19.93505 | 75.00678 | 37806 ft | 414 kts | 277° |
| 2026-04-26 12:40 | 19.94609 | 74.94679 | 37808 ft | 414 kts | 277° |
| 2026-04-26 12:40 | 19.95711 | 74.88678 | 37815 ft | 414 kts | 277° |
| 2026-04-26 12:41 | 19.96806 | 74.82707 | 37810 ft | 414 kts | 277° |
| 2026-04-26 12:41 | 19.97906 | 74.76695 | 37807 ft | 415 kts | 277° |
| 2026-04-26 12:42 | 19.99006 | 74.70673 | 37809 ft | 415 kts | 277° |
| 2026-04-26 12:42 | 20.00106 | 74.64635 | 37804 ft | 416 kts | 277° |
| 2026-04-26 12:43 | 20.01205 | 74.58593 | 37805 ft | 416 kts | 277° |
| 2026-04-26 12:43 | 20.02304 | 74.52535 | 37811 ft | 417 kts | 277° |
| 2026-04-26 12:44 | 20.03401 | 74.46480 | 37813 ft | 418 kts | 277° |
| 2026-04-26 12:44 | 20.04499 | 74.40410 | 37812 ft | 418 kts | 277° |
| 2026-04-26 12:45 | 20.05596 | 74.34330 | 37828 ft | 419 kts | 277° |
| 2026-04-26 12:45 | 20.06692 | 74.28240 | 37823 ft | 419 kts | 277° |
| 2026-04-26 12:46 | 20.07788 | 74.22142 | 37818 ft | 420 kts | 277° |
| 2026-04-26 12:46 | 20.08883 | 74.16036 | 37841 ft | 420 kts | 277° |
| 2026-04-26 12:47 | 20.09970 | 74.09959 | 37830 ft | 421 kts | 277° |
| 2026-04-26 12:47 | 20.11064 | 74.03835 | 37855 ft | 422 kts | 277° |
| 2026-04-26 12:48 | 20.12156 | 73.97706 | 37852 ft | 422 kts | 277° |
| 2026-04-26 12:48 | 20.13247 | 73.91575 | 37859 ft | 422 kts | 277° |
| 2026-04-26 12:49 | 20.14335 | 73.85443 | 37859 ft | 422 kts | 277° |
| 2026-04-26 12:49 | 20.15422 | 73.79307 | 37856 ft | 422 kts | 277° |
| 2026-04-26 12:50 | 20.16507 | 73.73165 | 37855 ft | 422 kts | 277° |
| 2026-04-26 12:50 | 20.17591 | 73.67020 | 37850 ft | 422 kts | 277° |
| 2026-04-26 12:51 | 20.18673 | 73.60869 | 37832 ft | 423 kts | 277° |
| 2026-04-26 12:51 | 20.19755 | 73.54706 | 37838 ft | 424 kts | 277° |
| 2026-04-26 12:52 | 20.20837 | 73.48536 | 37836 ft | 424 kts | 277° |
| 2026-04-26 12:52 | 20.21918 | 73.42349 | 37820 ft | 425 kts | 277° |
| 2026-04-26 12:53 | 20.22997 | 73.36163 | 37804 ft | 425 kts | 277° |
| 2026-04-26 12:53 | 20.24078 | 73.29962 | 37809 ft | 426 kts | 277° |
| 2026-04-26 12:54 | 20.25159 | 73.23789 | 37814 ft | 427 kts | 277° |
| 2026-04-26 12:54 | 20.26322 | 73.17583 | 37802 ft | 428 kts | 278° |
| 2026-04-26 12:55 | 20.27502 | 73.11368 | 37796 ft | 428 kts | 278° |
| 2026-04-26 12:55 | 20.28673 | 73.05148 | 37785 ft | 429 kts | 278° |
| 2026-04-26 12:56 | 20.29838 | 72.98920 | 37788 ft | 429 kts | 278° |
| 2026-04-26 12:56 | 20.31000 | 72.92683 | 37762 ft | 430 kts | 278° |
| 2026-04-26 12:57 | 20.32161 | 72.86439 | 37776 ft | 430 kts | 278° |
| 2026-04-26 12:57 | 20.33322 | 72.80184 | 37765 ft | 431 kts | 278° |
| 2026-04-26 12:58 | 20.35061 | 72.70789 | 37764 ft | 431 kts | 278° |
| 2026-04-26 12:58 | 20.36221 | 72.64504 | 37761 ft | 432 kts | 278° |
| 2026-04-26 12:59 | 20.37379 | 72.58219 | 37756 ft | 433 kts | 278° |
| 2026-04-26 12:59 | 20.38537 | 72.51923 | 37754 ft | 433 kts | 278° |
| 2026-04-26 13:00 | 20.39692 | 72.45625 | 37751 ft | 434 kts | 278° |
| 2026-04-26 13:00 | 20.40848 | 72.39310 | 37747 ft | 434 kts | 278° |
| 2026-04-26 13:01 | 20.42004 | 72.32985 | 37747 ft | 435 kts | 278° |
| 2026-04-26 13:01 | 20.43160 | 72.26644 | 37747 ft | 435 kts | 278° |
| 2026-04-26 13:02 | 20.44312 | 72.20308 | 37751 ft | 436 kts | 278° |
| 2026-04-26 13:02 | 20.45466 | 72.13952 | 37751 ft | 436 kts | 278° |
| 2026-04-26 13:03 | 20.46619 | 72.07587 | 37755 ft | 437 kts | 278° |
| 2026-04-26 13:03 | 20.47769 | 72.01223 | 37755 ft | 437 kts | 278° |
| 2026-04-26 13:04 | 20.48915 | 71.94854 | 37762 ft | 437 kts | 278° |
| 2026-04-26 13:04 | 20.50052 | 71.88517 | 37752 ft | 438 kts | 278° |
| 2026-04-26 13:05 | 20.51194 | 71.82135 | 37768 ft | 438 kts | 278° |
| 2026-04-26 13:05 | 20.52336 | 71.75744 | 37759 ft | 439 kts | 278° |
| 2026-04-26 13:06 | 20.53284 | 71.70423 | 37766 ft | 439 kts | 278° |
| 2026-04-26 13:06 | 20.54423 | 71.64020 | 37766 ft | 440 kts | 278° |
| 2026-04-26 13:07 | 20.55564 | 71.57594 | 37767 ft | 440 kts | 278° |
| 2026-04-26 13:07 | 20.56703 | 71.51163 | 37751 ft | 441 kts | 278° |
| 2026-04-26 13:08 | 20.57841 | 71.44725 | 37762 ft | 442 kts | 278° |
| 2026-04-26 13:08 | 20.58978 | 71.38277 | 37771 ft | 442 kts | 278° |
| 2026-04-26 13:09 | 20.60107 | 71.31862 | 37763 ft | 443 kts | 278° |
| 2026-04-26 13:09 | 20.61242 | 71.25396 | 37760 ft | 443 kts | 278° |
| 2026-04-26 13:10 | 20.62375 | 71.18925 | 37765 ft | 443 kts | 278° |
| 2026-04-26 13:10 | 20.63508 | 71.12444 | 37764 ft | 444 kts | 278° |
| 2026-04-26 13:11 | 20.64636 | 71.05969 | 37761 ft | 444 kts | 278° |
| 2026-04-26 13:11 | 20.65763 | 70.99495 | 37766 ft | 443 kts | 278° |
| 2026-04-26 13:12 | 20.66886 | 70.93024 | 37774 ft | 443 kts | 278° |
| 2026-04-26 13:12 | 20.68006 | 70.86556 | 37765 ft | 443 kts | 278° |
| 2026-04-26 13:13 | 20.69123 | 70.80089 | 37773 ft | 443 kts | 278° |
| 2026-04-26 13:13 | 20.70237 | 70.73621 | 37769 ft | 443 kts | 278° |
| 2026-04-26 13:14 | 20.71351 | 70.67145 | 37778 ft | 443 kts | 278° |
| 2026-04-26 13:14 | 20.72456 | 70.60704 | 37778 ft | 444 kts | 278° |
| 2026-04-26 13:15 | 20.73568 | 70.54207 | 37785 ft | 445 kts | 278° |
| 2026-04-26 13:15 | 20.74679 | 70.47697 | 37784 ft | 446 kts | 279° |
| 2026-04-26 13:16 | 20.75791 | 70.41172 | 37787 ft | 447 kts | 279° |
| 2026-04-26 13:16 | 20.76903 | 70.34629 | 37777 ft | 448 kts | 279° |
| 2026-04-26 13:17 | 20.78571 | 70.24786 | 37785 ft | 449 kts | 279° |
| 2026-04-26 13:18 | 20.80237 | 70.14914 | 37784 ft | 450 kts | 279° |
| 2026-04-26 13:19 | 20.81901 | 70.05023 | 37787 ft | 451 kts | 279° |
| 2026-04-26 13:19 | 20.83009 | 69.98421 | 37788 ft | 451 kts | 279° |
| 2026-04-26 13:20 | 20.84113 | 69.91818 | 37795 ft | 451 kts | 279° |
| 2026-04-26 13:20 | 20.85215 | 69.85216 | 37789 ft | 451 kts | 279° |
| 2026-04-26 13:21 | 20.86314 | 69.78615 | 37794 ft | 451 kts | 279° |
| 2026-04-26 13:21 | 20.87410 | 69.72019 | 37795 ft | 450 kts | 279° |
| 2026-04-26 13:22 | 20.88501 | 69.65434 | 37801 ft | 450 kts | 279° |
| 2026-04-26 13:22 | 20.89589 | 69.58850 | 37792 ft | 450 kts | 279° |
| 2026-04-26 13:23 | 20.90676 | 69.52254 | 37789 ft | 450 kts | 279° |
| 2026-04-26 13:23 | 20.91760 | 69.45667 | 37785 ft | 449 kts | 279° |
| 2026-04-26 13:24 | 20.92839 | 69.39089 | 37795 ft | 450 kts | 279° |
| 2026-04-26 13:24 | 20.93917 | 69.32499 | 37801 ft | 450 kts | 279° |
| 2026-04-26 13:25 | 20.94994 | 69.25904 | 37799 ft | 450 kts | 279° |
| 2026-04-26 13:25 | 20.96061 | 69.19350 | 37802 ft | 450 kts | 279° |
| 2026-04-26 13:26 | 20.97145 | 69.12746 | 37792 ft | 451 kts | 281° |
| 2026-04-26 13:26 | 20.99233 | 69.06415 | 37817 ft | 452 kts | 293° |
| 2026-04-26 13:27 | 21.01859 | 69.00286 | 37813 ft | 453 kts | 293° |
| 2026-04-26 13:27 | 21.04481 | 68.94142 | 37800 ft | 454 kts | 293° |
| 2026-04-26 13:28 | 21.07074 | 68.87975 | 37798 ft | 454 kts | 293° |
| 2026-04-26 13:28 | 21.09654 | 68.81792 | 37804 ft | 455 kts | 293° |
| 2026-04-26 13:29 | 21.12232 | 68.75597 | 37802 ft | 455 kts | 293° |
| 2026-04-26 13:29 | 21.14812 | 68.69393 | 37791 ft | 456 kts | 293° |
| 2026-04-26 13:30 | 21.17391 | 68.63182 | 37799 ft | 456 kts | 293° |
| 2026-04-26 13:30 | 21.19970 | 68.56967 | 37801 ft | 456 kts | 293° |
| 2026-04-26 13:31 | 21.22547 | 68.50749 | 37810 ft | 456 kts | 293° |
| 2026-04-26 13:31 | 21.25104 | 68.44572 | 37803 ft | 456 kts | 293° |
| 2026-04-26 13:32 | 21.27674 | 68.38355 | 37799 ft | 456 kts | 293° |
| 2026-04-26 13:32 | 21.30241 | 68.32139 | 37797 ft | 456 kts | 293° |
| 2026-04-26 13:33 | 21.32802 | 68.25927 | 37807 ft | 455 kts | 293° |
| 2026-04-26 13:33 | 21.35362 | 68.19711 | 37815 ft | 455 kts | 293° |
| 2026-04-26 13:34 | 21.37912 | 68.13514 | 37798 ft | 454 kts | 293° |
| 2026-04-26 13:34 | 21.40458 | 68.07317 | 37803 ft | 453 kts | 293° |
| 2026-04-26 13:35 | 21.43002 | 68.01117 | 37789 ft | 453 kts | 293° |
| 2026-04-26 13:35 | 21.45535 | 67.94935 | 37807 ft | 453 kts | 293° |
| 2026-04-26 13:36 | 21.48067 | 67.88749 | 37805 ft | 452 kts | 293° |
| 2026-04-26 13:36 | 21.50597 | 67.82562 | 37819 ft | 452 kts | 293° |
| 2026-04-26 13:37 | 21.53107 | 67.76414 | 37816 ft | 452 kts | 293° |
| 2026-04-26 13:37 | 21.55632 | 67.70221 | 37810 ft | 453 kts | 293° |
| 2026-04-26 13:38 | 21.58156 | 67.64025 | 37801 ft | 453 kts | 293° |
| 2026-04-26 13:38 | 21.60679 | 67.57822 | 37815 ft | 453 kts | 293° |
| 2026-04-26 13:39 | 21.63200 | 67.51616 | 37814 ft | 453 kts | 293° |
| 2026-04-26 13:39 | 21.65718 | 67.45409 | 37814 ft | 453 kts | 293° |
| 2026-04-26 13:40 | 21.68237 | 67.39194 | 37813 ft | 453 kts | 293° |
| 2026-04-26 13:40 | 21.70749 | 67.32986 | 37807 ft | 453 kts | 293° |
| 2026-04-26 13:41 | 21.73259 | 67.26778 | 37806 ft | 452 kts | 293° |
| 2026-04-26 13:41 | 21.75764 | 67.20572 | 37810 ft | 452 kts | 293° |
| 2026-04-26 13:42 | 21.78265 | 67.14367 | 37826 ft | 452 kts | 294° |
| 2026-04-26 13:42 | 21.80763 | 67.08164 | 37809 ft | 452 kts | 294° |
| 2026-04-26 13:43 | 21.83240 | 67.02006 | 37816 ft | 451 kts | 294° |
| 2026-04-26 13:43 | 21.85727 | 66.95811 | 37805 ft | 451 kts | 294° |
| 2026-04-26 13:44 | 21.88210 | 66.89622 | 37807 ft | 450 kts | 293° |
| 2026-04-26 13:44 | 21.90687 | 66.83438 | 37806 ft | 449 kts | 294° |
| 2026-04-26 13:45 | 21.93163 | 66.77251 | 37818 ft | 449 kts | 294° |
| 2026-04-26 13:45 | 21.95631 | 66.71074 | 37812 ft | 449 kts | 294° |
| 2026-04-26 13:46 | 21.98095 | 66.64899 | 37815 ft | 448 kts | 294° |
| 2026-04-26 13:46 | 22.00555 | 66.58726 | 37825 ft | 448 kts | 294° |
| 2026-04-26 13:47 | 22.03012 | 66.52553 | 37816 ft | 448 kts | 294° |
| 2026-04-26 13:47 | 22.05466 | 66.46380 | 37813 ft | 448 kts | 294° |
| 2026-04-26 13:48 | 22.07916 | 66.40210 | 37811 ft | 447 kts | 294° |
| 2026-04-26 13:48 | 22.10362 | 66.34042 | 37815 ft | 447 kts | 294° |
| 2026-04-26 13:49 | 22.12804 | 66.27875 | 37811 ft | 447 kts | 294° |
| 2026-04-26 13:49 | 22.15226 | 66.21749 | 37824 ft | 447 kts | 294° |
| 2026-04-26 13:50 | 22.17660 | 66.15585 | 37808 ft | 446 kts | 294° |
| 2026-04-26 13:50 | 22.20104 | 66.09388 | 37816 ft | 446 kts | 294° |
| 2026-04-26 13:51 | 22.22517 | 66.03263 | 37825 ft | 446 kts | 294° |
| 2026-04-26 13:51 | 22.24938 | 65.97107 | 37816 ft | 445 kts | 294° |
| 2026-04-26 13:52 | 22.27353 | 65.90959 | 37819 ft | 444 kts | 295° |
| 2026-04-26 13:52 | 22.29760 | 65.84824 | 37813 ft | 443 kts | 295° |
| 2026-04-26 13:53 | 22.32160 | 65.78700 | 37820 ft | 442 kts | 295° |
| 2026-04-26 13:53 | 22.34149 | 65.73619 | 37819 ft | 441 kts | 295° |
| 2026-04-26 13:54 | 22.36532 | 65.67521 | 37817 ft | 441 kts | 295° |
| 2026-04-26 13:54 | 22.38912 | 65.61424 | 37821 ft | 440 kts | 295° |
| 2026-04-26 13:55 | 22.42088 | 65.53276 | 37818 ft | 439 kts | 295° |
| 2026-04-26 13:56 | 22.46022 | 65.43164 | 37815 ft | 439 kts | 295° |
| 2026-04-26 13:56 | 22.48385 | 65.37081 | 37816 ft | 439 kts | 295° |
| 2026-04-26 13:57 | 22.50745 | 65.30997 | 37815 ft | 439 kts | 295° |
| 2026-04-26 13:57 | 22.53102 | 65.24912 | 37814 ft | 439 kts | 295° |
| 2026-04-26 13:58 | 22.55457 | 65.18824 | 37818 ft | 439 kts | 295° |
| 2026-04-26 13:58 | 22.57813 | 65.12725 | 37814 ft | 439 kts | 295° |
| 2026-04-26 13:59 | 22.60166 | 65.06626 | 37821 ft | 439 kts | 295° |
| 2026-04-26 13:59 | 22.62518 | 65.00523 | 37817 ft | 439 kts | 295° |
| 2026-04-26 14:00 | 22.67217 | 64.88302 | 37816 ft | 440 kts | 295° |
| 2026-04-26 14:01 | 22.69563 | 64.82188 | 37817 ft | 440 kts | 295° |
| 2026-04-26 14:01 | 22.71891 | 64.76114 | 37812 ft | 439 kts | 295° |
| 2026-04-26 14:02 | 22.74235 | 64.69992 | 37819 ft | 439 kts | 295° |
| 2026-04-26 14:02 | 22.76574 | 64.63871 | 37807 ft | 439 kts | 295° |
| 2026-04-26 14:03 | 22.78908 | 64.57756 | 37816 ft | 439 kts | 295° |
| 2026-04-26 14:03 | 22.80592 | 64.51399 | 37834 ft | 443 kts | 283° |
| 2026-04-26 14:04 | 22.81608 | 64.44812 | 37824 ft | 443 kts | 282° |
| 2026-04-26 14:04 | 22.82620 | 64.38222 | 37821 ft | 443 kts | 282° |
| 2026-04-26 14:05 | 22.83661 | 64.31641 | 37816 ft | 443 kts | 283° |
| 2026-04-26 14:05 | 22.84717 | 64.25062 | 37809 ft | 443 kts | 283° |
| 2026-04-26 14:06 | 22.85775 | 64.18487 | 37813 ft | 443 kts | 283° |
| 2026-04-26 14:06 | 22.86829 | 64.11913 | 37815 ft | 442 kts | 283° |
| 2026-04-26 14:07 | 22.87880 | 64.05340 | 37811 ft | 442 kts | 283° |
| 2026-04-26 14:07 | 22.88927 | 63.98771 | 37811 ft | 442 kts | 283° |
| 2026-04-26 14:08 | 22.89970 | 63.92205 | 37812 ft | 442 kts | 283° |
| 2026-04-26 14:08 | 22.91011 | 63.85640 | 37814 ft | 442 kts | 283° |
| 2026-04-26 14:09 | 22.92048 | 63.79075 | 37809 ft | 441 kts | 283° |
| 2026-04-26 14:09 | 22.93082 | 63.72513 | 37805 ft | 441 kts | 283° |
| 2026-04-26 14:10 | 22.94107 | 63.65995 | 37809 ft | 441 kts | 283° |
| 2026-04-26 14:10 | 22.95136 | 63.59432 | 37813 ft | 441 kts | 283° |
| 2026-04-26 14:11 | 22.96674 | 63.49584 | 37812 ft | 441 kts | 283° |
| 2026-04-26 14:11 | 22.97697 | 63.43008 | 37808 ft | 442 kts | 283° |
| 2026-04-26 14:12 | 22.98717 | 63.36443 | 37814 ft | 442 kts | 283° |
| 2026-04-26 14:12 | 22.99736 | 63.29859 | 37812 ft | 442 kts | 283° |
| 2026-04-26 14:13 | 23.01260 | 63.19980 | 37810 ft | 443 kts | 283° |
| 2026-04-26 14:14 | 23.02273 | 63.13387 | 37809 ft | 443 kts | 283° |
| 2026-04-26 14:14 | 23.03284 | 63.06790 | 37808 ft | 443 kts | 283° |
| 2026-04-26 14:15 | 23.04285 | 63.00237 | 37808 ft | 443 kts | 283° |
| 2026-04-26 14:15 | 23.05297 | 62.93594 | 37807 ft | 443 kts | 283° |
| 2026-04-26 14:16 | 23.06293 | 62.87038 | 37811 ft | 443 kts | 283° |
| 2026-04-26 14:16 | 23.07293 | 62.80438 | 37804 ft | 443 kts | 283° |
| 2026-04-26 14:17 | 23.08289 | 62.73846 | 37808 ft | 442 kts | 283° |
| 2026-04-26 14:17 | 23.09280 | 62.67264 | 37810 ft | 441 kts | 283° |
| 2026-04-26 14:18 | 23.10267 | 62.60695 | 37804 ft | 440 kts | 283° |
| 2026-04-26 14:18 | 23.11249 | 62.54140 | 37804 ft | 439 kts | 283° |
| 2026-04-26 14:19 | 23.12224 | 62.47605 | 37808 ft | 437 kts | 283° |
| 2026-04-26 14:19 | 23.13194 | 62.41090 | 37807 ft | 436 kts | 283° |
| 2026-04-26 14:20 | 23.14159 | 62.34589 | 37809 ft | 435 kts | 283° |
| 2026-04-26 14:20 | 23.15118 | 62.28111 | 37804 ft | 434 kts | 283° |
| 2026-04-26 14:21 | 23.16072 | 62.21647 | 37802 ft | 433 kts | 283° |
| 2026-04-26 14:21 | 23.17022 | 62.15193 | 37805 ft | 432 kts | 283° |
| 2026-04-26 14:22 | 23.17969 | 62.08744 | 37806 ft | 432 kts | 283° |
| 2026-04-26 14:22 | 23.18906 | 62.02339 | 37806 ft | 432 kts | 283° |
| 2026-04-26 14:23 | 23.19854 | 61.95843 | 37806 ft | 432 kts | 283° |
| 2026-04-26 14:23 | 23.20788 | 61.89426 | 37807 ft | 433 kts | 283° |
| 2026-04-26 14:24 | 23.21726 | 61.82959 | 37805 ft | 433 kts | 283° |
| 2026-04-26 14:24 | 23.22662 | 61.76484 | 37811 ft | 434 kts | 283° |
| 2026-04-26 14:25 | 23.23596 | 61.70004 | 37802 ft | 434 kts | 283° |
| 2026-04-26 14:25 | 23.24527 | 61.63529 | 37802 ft | 434 kts | 283° |
| 2026-04-26 14:26 | 23.25455 | 61.57048 | 37802 ft | 434 kts | 283° |
| 2026-04-26 14:26 | 23.26382 | 61.50562 | 37802 ft | 433 kts | 283° |
| 2026-04-26 14:27 | 23.27304 | 61.44087 | 37803 ft | 433 kts | 283° |
| 2026-04-26 14:27 | 23.28222 | 61.37623 | 37805 ft | 433 kts | 283° |
| 2026-04-26 14:28 | 23.29138 | 61.31156 | 37800 ft | 432 kts | 283° |
| 2026-04-26 14:28 | 23.30052 | 61.24683 | 37802 ft | 432 kts | 283° |
| 2026-04-26 14:29 | 23.30960 | 61.18228 | 37801 ft | 431 kts | 283° |
| 2026-04-26 14:29 | 23.31865 | 61.11778 | 37802 ft | 431 kts | 283° |
| 2026-04-26 14:30 | 23.32766 | 61.05338 | 37803 ft | 431 kts | 283° |
| 2026-04-26 14:30 | 23.33664 | 60.98897 | 37808 ft | 430 kts | 283° |
| 2026-04-26 14:31 | 23.34559 | 60.92462 | 37803 ft | 430 kts | 283° |
| 2026-04-26 14:31 | 23.35450 | 60.86033 | 37805 ft | 429 kts | 283° |
| 2026-04-26 14:32 | 23.36337 | 60.79612 | 37802 ft | 429 kts | 283° |
| 2026-04-26 14:32 | 23.37220 | 60.73200 | 37801 ft | 428 kts | 283° |
| 2026-04-26 14:33 | 23.38101 | 60.66798 | 37808 ft | 427 kts | 284° |
| 2026-04-26 14:33 | 23.39752 | 60.60683 | 37813 ft | 419 kts | 296° |
| 2026-04-26 14:34 | 23.41934 | 60.54852 | 37804 ft | 419 kts | 296° |
| 2026-04-26 14:34 | 23.44127 | 60.48941 | 37805 ft | 419 kts | 295° |
| 2026-04-26 14:35 | 23.46274 | 60.43089 | 37804 ft | 419 kts | 295° |
| 2026-04-26 14:35 | 23.48426 | 60.37193 | 37804 ft | 419 kts | 295° |
| 2026-04-26 14:36 | 23.50575 | 60.31293 | 37805 ft | 419 kts | 295° |
| 2026-04-26 14:36 | 23.52725 | 60.25381 | 37800 ft | 419 kts | 295° |
| 2026-04-26 14:37 | 23.54869 | 60.19480 | 37798 ft | 419 kts | 295° |
| 2026-04-26 14:37 | 23.57013 | 60.13571 | 37801 ft | 419 kts | 295° |
| 2026-04-26 14:38 | 23.59154 | 60.07662 | 37800 ft | 419 kts | 295° |
| 2026-04-26 14:38 | 23.61292 | 60.01752 | 37800 ft | 419 kts | 295° |
| 2026-04-26 14:39 | 23.63067 | 59.96839 | 37797 ft | 419 kts | 295° |
| 2026-04-26 14:39 | 23.65200 | 59.90928 | 37800 ft | 419 kts | 295° |
| 2026-04-26 14:40 | 23.67333 | 59.85010 | 37799 ft | 418 kts | 294° |
| 2026-04-26 14:40 | 23.69457 | 59.79108 | 37797 ft | 418 kts | 294° |
| 2026-04-26 14:41 | 23.71580 | 59.73202 | 37795 ft | 418 kts | 294° |
| 2026-04-26 14:41 | 23.73699 | 59.67299 | 37794 ft | 417 kts | 294° |
| 2026-04-26 14:42 | 23.75813 | 59.61400 | 37794 ft | 417 kts | 294° |
| 2026-04-26 14:42 | 23.77923 | 59.55505 | 37793 ft | 417 kts | 294° |
| 2026-04-26 14:43 | 23.80015 | 59.49653 | 37794 ft | 416 kts | 294° |
| 2026-04-26 14:43 | 23.82117 | 59.43763 | 37793 ft | 416 kts | 294° |
| 2026-04-26 14:44 | 23.84216 | 59.37872 | 37807 ft | 416 kts | 294° |
| 2026-04-26 14:44 | 23.86314 | 59.31980 | 37797 ft | 416 kts | 294° |
| 2026-04-26 14:45 | 23.88408 | 59.26088 | 37792 ft | 416 kts | 294° |
| 2026-04-26 14:45 | 23.90498 | 59.20199 | 37792 ft | 415 kts | 294° |
| 2026-04-26 14:46 | 23.92584 | 59.14314 | 37791 ft | 415 kts | 294° |
| 2026-04-26 14:46 | 23.94565 | 59.08386 | 37797 ft | 415 kts | 292° |
| 2026-04-26 14:47 | 23.96456 | 59.02422 | 37796 ft | 415 kts | 292° |
| 2026-04-26 14:47 | 23.98351 | 58.96463 | 37800 ft | 415 kts | 292° |
| 2026-04-26 14:48 | 24.00256 | 58.90510 | 37802 ft | 415 kts | 292° |
| 2026-04-26 14:48 | 24.02162 | 58.84560 | 37796 ft | 414 kts | 292° |
| 2026-04-26 14:49 | 24.04065 | 58.78607 | 37792 ft | 414 kts | 292° |
| 2026-04-26 14:49 | 24.05964 | 58.72661 | 37795 ft | 414 kts | 292° |
| 2026-04-26 14:50 | 24.07846 | 58.66757 | 37794 ft | 414 kts | 292° |
| 2026-04-26 14:50 | 24.09738 | 58.60814 | 37795 ft | 413 kts | 292° |
| 2026-04-26 14:51 | 24.11628 | 58.54866 | 37800 ft | 413 kts | 292° |
| 2026-04-26 14:51 | 24.13508 | 58.48929 | 37799 ft | 413 kts | 291° |
| 2026-04-26 14:52 | 24.15386 | 58.42984 | 37798 ft | 413 kts | 291° |
| 2026-04-26 14:52 | 24.17262 | 58.37040 | 37803 ft | 413 kts | 291° |
| 2026-04-26 14:53 | 24.19135 | 58.31093 | 37798 ft | 413 kts | 291° |
| 2026-04-26 14:53 | 24.21006 | 58.25146 | 37802 ft | 413 kts | 291° |
| 2026-04-26 14:54 | 24.22874 | 58.19200 | 37799 ft | 413 kts | 291° |
| 2026-04-26 14:54 | 24.24739 | 58.13256 | 37799 ft | 412 kts | 291° |
| 2026-04-26 14:55 | 24.26600 | 58.07313 | 37797 ft | 412 kts | 291° |
| 2026-04-26 14:55 | 24.28460 | 58.01365 | 37800 ft | 412 kts | 291° |
| 2026-04-26 14:56 | 24.30315 | 57.95424 | 37801 ft | 412 kts | 291° |
| 2026-04-26 14:56 | 24.32164 | 57.89491 | 37810 ft | 412 kts | 291° |
| 2026-04-26 14:57 | 24.34013 | 57.83552 | 37801 ft | 412 kts | 291° |
| 2026-04-26 14:57 | 24.35860 | 57.77608 | 37653 ft | 410 kts | 291° |
| 2026-04-26 14:57 | 24.36774 | 57.74661 | 37363 ft | 404 kts | 291° |
| 2026-04-26 14:58 | 24.37671 | 57.71766 | 36923 ft | 399 kts | 291° |
| 2026-04-26 14:58 | 24.38545 | 57.68944 | 36572 ft | 394 kts | 291° |
| 2026-04-26 14:58 | 24.39432 | 57.66082 | 36164 ft | 390 kts | 291° |
| 2026-04-26 14:58 | 24.40299 | 57.63280 | 35780 ft | 386 kts | 290° |
| 2026-04-26 14:59 | 24.41158 | 57.60503 | 35401 ft | 383 kts | 290° |
| 2026-04-26 14:59 | 24.42010 | 57.57748 | 35011 ft | 380 kts | 290° |
| 2026-04-26 14:59 | 24.42846 | 57.55042 | 34626 ft | 377 kts | 290° |
| 2026-04-26 14:59 | 24.43414 | 57.53201 | 34343 ft | 376 kts | 290° |
| 2026-04-26 15:00 | 24.44522 | 57.49611 | 33737 ft | 376 kts | 290° |
| 2026-04-26 15:00 | 24.45361 | 57.46896 | 33277 ft | 374 kts | 290° |
| 2026-04-26 15:00 | 24.46194 | 57.44200 | 32847 ft | 372 kts | 290° |
| 2026-04-26 15:00 | 24.47021 | 57.41520 | 32451 ft | 369 kts | 290° |
| 2026-04-26 15:01 | 24.47841 | 57.38859 | 32062 ft | 367 kts | 289° |
| 2026-04-26 15:01 | 24.48656 | 57.36214 | 31687 ft | 364 kts | 289° |
| 2026-04-26 15:01 | 24.49465 | 57.33587 | 31314 ft | 362 kts | 289° |
| 2026-04-26 15:01 | 24.50269 | 57.30974 | 30940 ft | 360 kts | 288° |
| 2026-04-26 15:02 | 24.51069 | 57.28370 | 30574 ft | 358 kts | 288° |
| 2026-04-26 15:02 | 24.51863 | 57.25787 | 30201 ft | 357 kts | 288° |
| 2026-04-26 15:02 | 24.52655 | 57.23206 | 29829 ft | 356 kts | 288° |
| 2026-04-26 15:02 | 24.53446 | 57.20627 | 29401 ft | 354 kts | 288° |
| 2026-04-26 15:03 | 24.54228 | 57.18078 | 29004 ft | 352 kts | 287° |
| 2026-04-26 15:03 | 24.55005 | 57.15543 | 28625 ft | 349 kts | 287° |
| 2026-04-26 15:03 | 24.55777 | 57.13020 | 28229 ft | 346 kts | 287° |
| 2026-04-26 15:03 | 24.56543 | 57.10515 | 27863 ft | 344 kts | 287° |
| 2026-04-26 15:04 | 24.57300 | 57.08039 | 27498 ft | 341 kts | 287° |
| 2026-04-26 15:04 | 24.58055 | 57.05569 | 27145 ft | 339 kts | 287° |
| 2026-04-26 15:04 | 24.58801 | 57.03125 | 26785 ft | 337 kts | 287° |
| 2026-04-26 15:04 | 24.59544 | 57.00690 | 26417 ft | 335 kts | 287° |
| 2026-04-26 15:05 | 24.60282 | 56.98267 | 26066 ft | 334 kts | 286° |
| 2026-04-26 15:05 | 24.60770 | 56.96667 | 25835 ft | 333 kts | 286° |
| 2026-04-26 15:05 | 24.61753 | 56.93440 | 25356 ft | 333 kts | 286° |
| 2026-04-26 15:05 | 24.62526 | 56.91003 | 24914 ft | 349 kts | 289° |
| 2026-04-26 15:06 | 24.63523 | 56.88440 | 24461 ft | 378 kts | 291° |
| 2026-04-26 15:06 | 24.64662 | 56.85726 | 24007 ft | 404 kts | 292° |
| 2026-04-26 15:06 | 24.65893 | 56.82850 | 23546 ft | 426 kts | 292° |
| 2026-04-26 15:06 | 24.67181 | 56.79836 | 23003 ft | 440 kts | 292° |
| 2026-04-26 15:07 | 24.69756 | 56.73744 | 21992 ft | 438 kts | 292° |
| 2026-04-26 15:07 | 24.71024 | 56.70710 | 21523 ft | 435 kts | 292° |
| 2026-04-26 15:07 | 24.72281 | 56.67686 | 21052 ft | 434 kts | 292° |
| 2026-04-26 15:08 | 24.73528 | 56.64674 | 20591 ft | 432 kts | 292° |
| 2026-04-26 15:08 | 24.74770 | 56.61667 | 20115 ft | 431 kts | 293° |
| 2026-04-26 15:08 | 24.76011 | 56.58661 | 19637 ft | 431 kts | 293° |
| 2026-04-26 15:08 | 24.77248 | 56.55662 | 19163 ft | 430 kts | 293° |
| 2026-04-26 15:09 | 24.78482 | 56.52672 | 18693 ft | 428 kts | 292° |
| 2026-04-26 15:09 | 24.79702 | 56.49714 | 18228 ft | 421 kts | 293° |
| 2026-04-26 15:09 | 24.80883 | 56.46848 | 17721 ft | 415 kts | 293° |
| 2026-04-26 15:09 | 24.82071 | 56.43965 | 17254 ft | 410 kts | 293° |
| 2026-04-26 15:10 | 24.83245 | 56.41110 | 16807 ft | 408 kts | 292° |
| 2026-04-26 15:10 | 24.84035 | 56.39189 | 16505 ft | 406 kts | 292° |
| 2026-04-26 15:10 | 24.85570 | 56.35454 | 15888 ft | 402 kts | 292° |
| 2026-04-26 15:10 | 24.86718 | 56.32659 | 15294 ft | 399 kts | 293° |
| 2026-04-26 15:11 | 24.87849 | 56.29902 | 14821 ft | 391 kts | 293° |
| 2026-04-26 15:11 | 24.88955 | 56.27206 | 14359 ft | 384 kts | 293° |
| 2026-04-26 15:11 | 24.90048 | 56.24540 | 13924 ft | 378 kts | 293° |
| 2026-04-26 15:11 | 24.91122 | 56.21916 | 13447 ft | 372 kts | 292° |
| 2026-04-26 15:12 | 24.92094 | 56.19305 | 12772 ft | 364 kts | 290° |
| 2026-04-26 15:12 | 24.92948 | 56.16712 | 12038 ft | 358 kts | 288° |
| 2026-04-26 15:12 | 24.93774 | 56.14110 | 11330 ft | 361 kts | 288° |
| 2026-04-26 15:12 | 24.94605 | 56.11493 | 10654 ft | 363 kts | 289° |
| 2026-04-26 15:13 | 24.95433 | 56.08907 | 10396 ft | 352 kts | 289° |
| 2026-04-26 15:13 | 24.96237 | 56.06420 | 10233 ft | 338 kts | 289° |
| 2026-04-26 15:13 | 24.97030 | 56.03981 | 9631 ft | 341 kts | 289° |
| 2026-04-26 15:13 | 24.97832 | 56.01518 | 9008 ft | 341 kts | 290° |
| 2026-04-26 15:14 | 24.98636 | 55.99060 | 8431 ft | 341 kts | 290° |
| 2026-04-26 15:14 | 24.99430 | 55.96632 | 8182 ft | 331 kts | 290° |
| 2026-04-26 15:14 | 25.00194 | 55.94294 | 8030 ft | 318 kts | 290° |
| 2026-04-26 15:14 | 25.00935 | 55.92026 | 7678 ft | 311 kts | 290° |
| 2026-04-26 15:15 | 25.01659 | 55.89811 | 7250 ft | 303 kts | 290° |
| 2026-04-26 15:15 | 25.02364 | 55.87652 | 6829 ft | 296 kts | 291° |
| 2026-04-26 15:15 | 25.03052 | 55.85543 | 6416 ft | 289 kts | 291° |
| 2026-04-26 15:15 | 25.03726 | 55.83478 | 5988 ft | 283 kts | 291° |
| 2026-04-26 15:16 | 25.04380 | 55.81474 | 5558 ft | 279 kts | 291° |
| 2026-04-26 15:16 | 25.05040 | 55.79449 | 5119 ft | 275 kts | 290° |
| 2026-04-26 15:16 | 25.05681 | 55.77481 | 4853 ft | 270 kts | 291° |
| 2026-04-26 15:16 | 25.06309 | 55.75554 | 4685 ft | 263 kts | 291° |
| 2026-04-26 15:17 | 25.06920 | 55.73677 | 4500 ft | 257 kts | 291° |
| 2026-04-26 15:17 | 25.07317 | 55.72455 | 4386 ft | 254 kts | 291° |
| 2026-04-26 15:17 | 25.08101 | 55.70044 | 4151 ft | 246 kts | 291° |
| 2026-04-26 15:17 | 25.08666 | 55.68307 | 4069 ft | 233 kts | 290° |
| 2026-04-26 15:18 | 25.09198 | 55.66670 | 3907 ft | 222 kts | 290° |
| 2026-04-26 15:18 | 25.09701 | 55.65120 | 3744 ft | 212 kts | 290° |
| 2026-04-26 15:18 | 25.10294 | 55.63689 | 3661 ft | 199 kts | 299° |
| 2026-04-26 15:18 | 25.10984 | 55.62391 | 3430 ft | 195 kts | 301° |
| 2026-04-26 15:19 | 25.11687 | 55.61115 | 3131 ft | 195 kts | 301° |
| 2026-04-26 15:19 | 25.12396 | 55.59830 | 3061 ft | 198 kts | 301° |
| 2026-04-26 15:19 | 25.13110 | 55.58534 | 3008 ft | 197 kts | 301° |
| 2026-04-26 15:19 | 25.13814 | 55.57257 | 3020 ft | 193 kts | 300° |
| 2026-04-26 15:20 | 25.14512 | 55.55987 | 3005 ft | 193 kts | 301° |
| 2026-04-26 15:20 | 25.15201 | 55.54735 | 2961 ft | 187 kts | 301° |
| 2026-04-26 15:20 | 25.15861 | 55.53536 | 2770 ft | 177 kts | 301° |
| 2026-04-26 15:20 | 25.16482 | 55.52409 | 2562 ft | 167 kts | 301° |
| 2026-04-26 15:21 | 25.17060 | 55.51359 | 2388 ft | 151 kts | 301° |
| 2026-04-26 15:21 | 25.17586 | 55.50404 | 2201 ft | 144 kts | 301° |
| 2026-04-26 15:21 | 25.18102 | 55.49468 | 1996 ft | 141 kts | 301° |
| 2026-04-26 15:21 | 25.18617 | 55.48533 | 1799 ft | 141 kts | 301° |
| 2026-04-26 15:22 | 25.19131 | 55.47600 | 1640 ft | 145 kts | 301° |
| 2026-04-26 15:22 | 25.19659 | 55.46641 | 1453 ft | 147 kts | 300° |
| 2026-04-26 15:22 | 25.20191 | 55.45675 | 1268 ft | 147 kts | 300° |
| 2026-04-26 15:22 | 25.20718 | 55.44716 | 1075 ft | 144 kts | 301° |
| 2026-04-26 15:23 | 25.21240 | 55.43768 | 910 ft | 145 kts | 300° |
| 2026-04-26 15:23 | 25.21760 | 55.42826 | 737 ft | 142 kts | 298° |
| 2026-04-26 15:23 | 25.22096 | 55.42219 | 626 ft | 139 kts | 298° |
| 2026-04-26 15:23 | 25.22591 | 55.41321 | 429 ft | 136 kts | 299° |
| 2026-04-26 15:24 | 25.23081 | 55.40426 | 260 ft | 137 kts | 299° |
| 2026-04-26 15:24 | 25.23586 | 55.39496 | 98 ft | 147 kts | 300° |
| 2026-04-26 15:24 | 25.24108 | 55.38554 | 31 ft | 134 kts | 300° |
| 2026-04-26 15:24 | 25.24516 | 55.37819 | 22 ft | 71 kts | 301° |
| 2026-04-26 15:25 | 25.24709 | 55.37468 | 24 ft | 36 kts | 300° |
| 2026-04-26 15:25 | 25.24764 | 55.37330 | 25 ft | 9 kts | 285° |
| 2026-04-26 15:25 | 25.24778 | 55.37248 | 25 ft | 11 kts | 276° |
| 2026-04-26 15:25 | 25.24783 | 55.37165 | 23 ft | 11 kts | 272° |
| 2026-04-26 15:26 | 25.24785 | 55.37084 | 22 ft | 10 kts | 271° |
| 2026-04-26 15:26 | 25.24789 | 55.37005 | 21 ft | 10 kts | 277° |
| 2026-04-26 15:26 | 25.24809 | 55.36932 | 22 ft | 10 kts | 296° |
| 2026-04-26 15:26 | 25.24840 | 55.36866 | 21 ft | 10 kts | 295° |
| 2026-04-26 15:27 | 25.24862 | 55.36797 | 21 ft | 9 kts | 283° |
| 2026-04-26 15:27 | 25.24875 | 55.36728 | 21 ft | 9 kts | 282° |
| 2026-04-26 15:27 | 25.24897 | 55.36664 | 23 ft | 9 kts | 296° |
| 2026-04-26 15:27 | 25.24926 | 55.36606 | 22 ft | 9 kts | 301° |
| 2026-04-26 15:28 | 25.24957 | 55.36551 | 20 ft | 8 kts | 304° |
| 2026-04-26 15:28 | 25.24986 | 55.36496 | 20 ft | 9 kts | 305° |
| 2026-04-26 15:28 | 25.25047 | 55.36389 | 21 ft | 24 kts | 302° |
| 2026-04-26 15:28 | 25.25161 | 55.36187 | 22 ft | 36 kts | 302° |
| 2026-04-26 15:29 | 25.25292 | 55.35955 | 21 ft | 35 kts | 302° |
| 2026-04-26 15:29 | 25.25414 | 55.35737 | 22 ft | 32 kts | 300° |
| 2026-04-26 15:29 | 25.25633 | 55.35349 | 20 ft | 28 kts | 302° |
| 2026-04-26 15:30 | 25.25824 | 55.35004 | 20 ft | 25 kts | 300° |
| 2026-04-26 15:30 | 25.25909 | 55.34847 | 22 ft | 23 kts | 302° |
| 2026-04-26 15:30 | 25.25994 | 55.34701 | 22 ft | 22 kts | 302° |
| 2026-04-26 15:31 | 25.26071 | 55.34567 | 21 ft | 12 kts | 306° |
| 2026-04-26 15:31 | 25.26156 | 55.34538 | 22 ft | 7 kts | 33° |
| 2026-04-26 15:31 | 25.26194 | 55.34564 | 20 ft | 0 kts | 31° |